createdAt,value
2022-11-04T00:02:37.351Z,97112.72
2022-11-04T00:07:57.807Z,97107.53
2022-11-04T00:12:59.537Z,97107.94
2022-11-04T00:18:01.276Z,97109.53
2022-11-04T00:23:35.648Z,97103.72
2022-11-04T00:28:43.458Z,97104.72
2022-11-04T00:33:46.556Z,97094.34
2022-11-04T00:38:48.462Z,97099.53
2022-11-04T00:43:50.193Z,97089.13
2022-11-04T00:48:52.019Z,97102.13
2022-11-04T00:53:54.070Z,97098.13
2022-11-04T00:58:55.859Z,97086.94
2022-11-04T01:03:57.736Z,97086.13
2022-11-04T01:09:02.422Z,97085.94
2022-11-04T01:14:05.775Z,97080.75
2022-11-04T01:19:07.794Z,97073.53
2022-11-04T01:24:09.531Z,97075.94
2022-11-04T01:29:14.329Z,97081.94
2022-11-04T01:34:16.109Z,97076.75
2022-11-04T01:39:17.943Z,97074.94
2022-11-04T01:44:41.544Z,97065.97
2022-11-04T01:49:47.711Z,97070.34
2022-11-04T01:54:52.468Z,97052.00
2022-11-04T01:59:55.483Z,97044.00
2022-11-04T02:04:58.706Z,97047.00
2022-11-04T02:10:00.807Z,97037.19
2022-11-04T02:15:03.518Z,97047.81
2022-11-04T02:20:28.274Z,97052.41
2022-11-04T02:25:51.268Z,97051.19
2022-11-04T02:31:01.982Z,97048.59
2022-11-04T02:36:19.244Z,97070.00
2022-11-04T02:41:31.117Z,97060.19
2022-11-04T02:46:40.824Z,97070.41
2022-11-04T02:52:05.074Z,97049.41
2022-11-04T02:57:13.218Z,97045.19
2022-11-04T03:02:21.135Z,97140.19
2022-11-04T03:07:28.926Z,97150.00
2022-11-04T03:12:42.533Z,97188.81
2022-11-04T03:17:54.895Z,97177.59
2022-11-04T03:23:00.351Z,97183.00
2022-11-04T03:28:47.961Z,97176.81
2022-11-04T03:33:52.643Z,97167.59
2022-11-04T03:38:54.551Z,97155.41
2022-11-04T03:43:56.362Z,97149.81
2022-11-04T03:49:00.656Z,97158.41
2022-11-04T03:54:02.650Z,97174.00
2022-11-04T03:59:30.689Z,97167.19
2022-11-04T04:04:38.749Z,97162.19
2022-11-04T04:09:54.458Z,97168.59
2022-11-04T04:15:07.665Z,97173.19
2022-11-04T04:20:23.665Z,97181.00
2022-11-04T04:25:47.571Z,97187.59
2022-11-04T04:30:49.972Z,97188.19
2022-11-04T04:35:56.580Z,97195.78
2022-11-04T04:41:25.127Z,97190.97
2022-11-04T04:46:29.916Z,97188.16
2022-11-04T04:51:32.804Z,97191.97
2022-11-04T04:56:34.674Z,97197.97
2022-11-04T05:01:36.697Z,97187.16
2022-11-04T05:06:38.688Z,97190.19
2022-11-04T05:11:40.798Z,97192.38
2022-11-04T05:16:42.681Z,97186.19
2022-11-04T05:21:44.510Z,97192.19
2022-11-04T05:26:46.343Z,97201.59
2022-11-04T05:31:48.370Z,97202.38
2022-11-04T05:36:50.170Z,97202.38
2022-11-04T05:41:52.147Z,97187.59
2022-11-04T05:46:53.916Z,97182.59
2022-11-04T05:51:56.180Z,97181.78
2022-11-04T05:56:58.625Z,97176.78
2022-11-04T06:02:00.692Z,97191.38
2022-11-04T06:07:02.688Z,97204.56
2022-11-04T06:12:15.321Z,97212.38
2022-11-04T06:17:20.358Z,97203.97
2022-11-04T06:22:22.334Z,97200.56
2022-11-04T06:27:24.707Z,97205.56
2022-11-04T06:32:26.728Z,97213.38
2022-11-04T06:37:28.664Z,97220.19
2022-11-04T06:42:30.394Z,97213.19
2022-11-04T06:47:32.244Z,97209.19
2022-11-04T06:52:38.060Z,97179.78
2022-11-04T06:57:42.964Z,97184.78
2022-11-04T07:02:45.173Z,97185.41
2022-11-04T07:07:47.589Z,97185.59
2022-11-04T07:12:49.569Z,97186.59
2022-11-04T07:17:51.436Z,97189.41
2022-11-04T07:22:54.969Z,97192.03
2022-11-04T07:28:04.338Z,97199.84
2022-11-04T07:33:06.853Z,97200.03
2022-11-04T07:38:08.942Z,97208.63
2022-11-04T07:43:10.952Z,97220.25
2022-11-04T07:48:13.539Z,97225.25
2022-11-04T07:53:15.370Z,97233.06
2022-11-04T07:58:19.568Z,97237.47
2022-11-04T08:03:21.570Z,97249.06
2022-11-04T08:08:24.397Z,97237.25
2022-11-04T08:13:30.797Z,97220.03
2022-11-04T08:18:34.616Z,97238.06
2022-11-04T08:23:37.067Z,97227.66
2022-11-04T08:28:39.384Z,97222.44
2022-11-04T08:33:42.120Z,97202.44
2022-11-04T08:38:44.653Z,97201.63
2022-11-04T08:43:47.747Z,97194.84
2022-11-04T08:48:49.740Z,97211.25
2022-11-04T08:53:51.702Z,97212.06
2022-11-04T08:58:54.143Z,97195.63
2022-11-04T09:03:56.113Z,97204.66
2022-11-04T09:09:04.257Z,97194.84
2022-11-04T09:14:07.076Z,97201.63
2022-11-04T09:19:09.666Z,97207.66
2022-11-04T09:24:12.696Z,97209.03
2022-11-04T09:29:14.822Z,97204.84
2022-11-04T09:34:18.153Z,97209.44
2022-11-04T09:39:20.312Z,97214.03
2022-11-04T09:44:30.513Z,97214.44
2022-11-04T09:49:39.648Z,97225.25
2022-11-04T09:55:02.338Z,97238.66
2022-11-04T10:00:06.471Z,97239.25
2022-11-04T10:05:48.436Z,97246.63
2022-11-04T10:11:05.847Z,97261.03
2022-11-04T10:16:32.288Z,97265.22
2022-11-04T10:21:45.587Z,97265.38
2022-11-04T10:26:59.997Z,97275.56
2022-11-04T10:32:12.248Z,97284.94
2022-11-04T10:37:14.254Z,97283.13
2022-11-04T10:42:24.871Z,97287.91
2022-11-04T10:47:40.951Z,97293.31
2022-11-04T10:52:43.226Z,97299.50
2022-11-04T10:57:45.215Z,97301.28
2022-11-04T11:02:48.145Z,97299.06
2022-11-04T11:07:56.190Z,97293.06
2022-11-04T11:13:05.184Z,97291.44
2022-11-04T11:18:18.391Z,97282.84
2022-11-04T11:23:39.295Z,97283.03
2022-11-04T11:28:47.793Z,97283.22
2022-11-04T11:33:53.186Z,97277.03
2022-11-04T11:39:01.493Z,97283.66
2022-11-04T11:44:20.393Z,97269.06
2022-11-04T11:49:28.542Z,97269.06
2022-11-04T11:54:35.576Z,97277.84
2022-11-04T12:10:59.992Z,97272.19
2022-11-04T12:16:38.866Z,97264.78
2022-11-04T12:21:46.657Z,97267.78
2022-11-04T12:27:29.393Z,97265.97
2022-11-04T12:32:52.835Z,97271.38
2022-11-04T12:38:13.318Z,97265.97
2022-11-04T12:43:26.943Z,97266.78
2022-11-04T12:48:50.744Z,97247.78
2022-11-04T12:54:30.733Z,97256.59
2022-11-04T13:00:01.707Z,97252.56
2022-11-04T13:05:19.694Z,97246.53
2022-11-04T13:11:04.649Z,97243.34
2022-11-04T13:16:12.220Z,97255.72
2022-11-04T13:21:21.915Z,97248.91
2022-11-04T13:26:25.033Z,97253.72
2022-11-04T13:31:42.590Z,97252.53
2022-11-04T13:36:58.180Z,97274.13
2022-11-04T13:42:21.926Z,97275.91
2022-11-04T13:47:32.367Z,97277.91
2022-11-04T13:52:52.300Z,97293.06
2022-11-04T13:57:59.444Z,97282.44
2022-11-04T14:03:27.166Z,97292.22
2022-11-04T14:08:30.125Z,97283.22
2022-11-04T14:13:35.089Z,97298.38
2022-11-04T14:18:43.270Z,97305.56
2022-11-04T14:23:52.381Z,97315.13
2022-11-04T14:29:06.324Z,97317.13
2022-11-04T14:34:23.963Z,97325.47
2022-11-04T14:39:39.442Z,97331.47
2022-11-04T14:44:50.646Z,97335.06
2022-11-04T14:49:58.677Z,97333.66
2022-11-04T14:55:20.663Z,97337.66
2022-11-04T15:00:34.908Z,97348.78
2022-11-04T15:05:38.946Z,97352.56
2022-11-04T15:10:41.052Z,97361.53
2022-11-04T15:15:49.032Z,97373.91
2022-11-04T15:20:52.924Z,97373.09
2022-11-04T15:25:57.055Z,97370.69
2022-11-04T15:31:03.061Z,97378.28
2022-11-04T15:36:08.380Z,97382.50
2022-11-04T15:41:30.036Z,97380.28
2022-11-04T15:46:34.256Z,97382.88
2022-11-04T15:51:41.979Z,97386.25
2022-11-04T15:56:51.905Z,97390.22
2022-11-04T16:01:54.850Z,97395.59
2022-11-04T16:07:05.218Z,97407.59
2022-11-04T16:12:29.015Z,97400.59
2022-11-04T16:17:31.929Z,97405.19
2022-11-04T16:22:40.884Z,97413.94
2022-11-04T16:27:45.822Z,97415.56
2022-11-04T16:32:50.459Z,97419.94
2022-11-04T16:37:54.460Z,97422.72
2022-11-04T16:42:57.851Z,97430.25
2022-11-04T16:48:00.217Z,97442.81
2022-11-04T16:53:04.117Z,97442.38
2022-11-04T16:58:06.104Z,97452.50
2022-11-04T17:03:22.950Z,97454.28
2022-11-04T17:08:26.292Z,97459.66
2022-11-04T17:13:32.112Z,97464.22
2022-11-04T17:18:38.840Z,97461.63
2022-11-04T17:23:41.970Z,97468.44
2022-11-04T17:28:43.840Z,97471.63
2022-11-04T17:33:46.250Z,97473.63
2022-11-04T17:38:48.457Z,97476.38
2022-11-04T17:44:02.378Z,97481.75
2022-11-04T17:49:10.056Z,97486.50
2022-11-04T17:54:12.430Z,97487.50
2022-11-04T17:59:15.867Z,97483.13
2022-11-04T18:04:22.912Z,97488.47
2022-11-04T18:09:24.833Z,97483.28
2022-11-04T18:14:26.800Z,97491.88
2022-11-04T18:19:28.826Z,97499.84
2022-11-04T18:24:30.988Z,97493.84
2022-11-04T18:29:32.940Z,97492.06
2022-11-04T18:34:34.943Z,97485.09
2022-11-04T18:39:38.399Z,97493.50
2022-11-04T18:44:40.667Z,97485.72
2022-11-04T18:49:42.643Z,97481.69
2022-11-04T18:54:44.653Z,97484.28
2022-11-04T18:59:46.586Z,97476.84
2022-11-04T19:04:48.455Z,97474.44
2022-11-04T19:09:50.329Z,97479.00
2022-11-04T19:14:52.745Z,97484.56
2022-11-04T19:19:58.267Z,97480.72
2022-11-04T19:25:00.204Z,97493.06
2022-11-04T19:30:02.206Z,97503.63
2022-11-04T19:35:04.507Z,97517.22
2022-11-04T19:40:07.119Z,97518.81
2022-11-04T19:45:10.899Z,97516.22
2022-11-04T19:50:13.247Z,97530.38
2022-11-04T19:55:15.632Z,97533.31
2022-11-04T20:00:18.128Z,97536.88
2022-11-04T20:05:19.974Z,97546.47
2022-11-04T20:10:23.490Z,97551.66
2022-11-04T20:15:26.486Z,97560.63
2022-11-04T20:20:28.537Z,97560.63
2022-11-04T20:25:30.352Z,97570.19
2022-11-04T20:30:32.200Z,97571.00
2022-11-04T20:35:34.986Z,97589.16
2022-11-04T20:40:36.873Z,97592.34
2022-11-04T20:45:39.254Z,97593.16
2022-11-04T20:50:41.171Z,97597.53
2022-11-04T20:55:42.924Z,97606.28
2022-11-04T21:00:44.767Z,97609.09
2022-11-04T21:05:46.535Z,97617.84
2022-11-04T21:10:56.453Z,97624.81
2022-11-04T21:16:00.011Z,97625.19
2022-11-04T21:21:06.822Z,97624.56
2022-11-04T21:26:14.116Z,97627.13
2022-11-04T21:31:15.928Z,97636.72
2022-11-04T21:36:19.215Z,97636.72
2022-11-04T21:41:25.459Z,97641.09
2022-11-04T21:46:30.581Z,97635.09
2022-11-04T21:51:34.505Z,97636.25
2022-11-04T21:56:36.412Z,97640.63
2022-11-04T22:01:38.332Z,97638.03
2022-11-04T22:06:43.303Z,97645.81
2022-11-04T22:11:45.097Z,97648.41
2022-11-04T22:16:46.839Z,97650.38
2022-11-04T22:21:48.733Z,97652.16
2022-11-04T22:26:50.849Z,97663.34
2022-11-04T22:31:52.682Z,97660.13
2022-11-04T22:36:54.593Z,97661.28
2022-11-04T22:41:56.415Z,97658.84
2022-11-04T22:46:58.194Z,97665.66
2022-11-04T22:51:59.916Z,97666.94
2022-11-04T22:57:01.651Z,97666.50
2022-11-04T23:02:03.695Z,97671.03
2022-11-04T23:07:05.934Z,97669.44
2022-11-04T23:12:27.421Z,97670.41
2022-11-04T23:17:47.723Z,97665.41
2022-11-04T23:23:08.092Z,97671.72
2022-11-04T23:28:28.725Z,97677.09
2022-11-04T23:33:48.907Z,97682.44
2022-11-04T23:38:50.666Z,97681.31
2022-11-04T23:43:52.652Z,97690.69
2022-11-04T23:49:12.758Z,97696.03
2022-11-04T23:54:33.352Z,97698.00
2022-11-04T23:59:53.562Z,97701.56
